sensor_id;sensor_type;location;lat;lon;timestamp;P1;durP1;ratioP1;P2;durP2;ratioP2
66559;SDS011;53413;49.878;8.142;2023-03-23T00:02:01;3.10;;;0.90;;
66559;SDS011;53413;49.878;8.142;2023-03-23T00:04:27;3.00;;;0.87;;
66559;SDS011;53413;49.878;8.142;2023-03-23T00:06:54;2.80;;;0.90;;
66559;SDS011;53413;49.878;8.142;2023-03-23T00:09:19;4.27;;;0.90;;
66559;SDS011;53413;49.878;8.142;2023-03-23T00:11:50;3.47;;;0.95;;
66559;SDS011;53413;49.878;8.142;2023-03-23T00:14:16;3.75;;;1.00;;
66559;SDS011;53413;49.878;8.142;2023-03-23T00:16:47;2.87;;;0.83;;
66559;SDS011;53413;49.878;8.142;2023-03-23T00:19:14;2.40;;;0.70;;
66559;SDS011;53413;49.878;8.142;2023-03-23T00:21:40;2.80;;;0.90;;
66559;SDS011;53413;49.878;8.142;2023-03-23T00:24:10;3.67;;;0.90;;
66559;SDS011;53413;49.878;8.142;2023-03-23T00:26:37;2.92;;;0.80;;
66559;SDS011;53413;49.878;8.142;2023-03-23T00:29:13;2.60;;;0.80;;
66559;SDS011;53413;49.878;8.142;2023-03-23T00:31:44;2.72;;;0.80;;
66559;SDS011;53413;49.878;8.142;2023-03-23T00:34:14;3.25;;;0.85;;
66559;SDS011;53413;49.878;8.142;2023-03-23T00:36:45;2.97;;;0.80;;
66559;SDS011;53413;49.878;8.142;2023-03-23T00:39:21;3.60;;;0.90;;
66559;SDS011;53413;49.878;8.142;2023-03-23T00:41:49;3.17;;;0.82;;
66559;SDS011;53413;49.878;8.142;2023-03-23T00:44:15;2.92;;;0.82;;
66559;SDS011;53413;49.878;8.142;2023-03-23T00:46:44;3.08;;;0.90;;
66559;SDS011;53413;49.878;8.142;2023-03-23T00:49:14;2.57;;;0.90;;
66559;SDS011;53413;49.878;8.142;2023-03-23T00:51:41;3.53;;;0.90;;
66559;SDS011;53413;49.878;8.142;2023-03-23T00:54:07;3.67;;;1.00;;
66559;SDS011;53413;49.878;8.142;2023-03-23T00:56:33;3.43;;;1.00;;
66559;SDS011;53413;49.878;8.142;2023-03-23T00:59:00;3.15;;;0.90;;
66559;SDS011;53413;49.878;8.142;2023-03-23T01:01:25;2.88;;;0.90;;
66559;SDS011;53413;49.878;8.142;2023-03-23T01:03:51;2.70;;;0.87;;
66559;SDS011;53413;49.878;8.142;2023-03-23T01:06:18;2.97;;;0.87;;
66559;SDS011;53413;49.878;8.142;2023-03-23T01:08:43;3.55;;;1.08;;
66559;SDS011;53413;49.878;8.142;2023-03-23T01:11:12;3.15;;;0.80;;
66559;SDS011;53413;49.878;8.142;2023-03-23T01:13:40;2.90;;;1.10;;
66559;SDS011;53413;49.878;8.142;2023-03-23T01:16:09;3.20;;;1.00;;
66559;SDS011;53413;49.878;8.142;2023-03-23T01:18:35;2.83;;;0.90;;
66559;SDS011;53413;49.878;8.142;2023-03-23T01:21:04;3.47;;;1.00;;
66559;SDS011;53413;49.878;8.142;2023-03-23T01:23:31;3.53;;;1.10;;
66559;SDS011;53413;49.878;8.142;2023-03-23T01:25:58;3.13;;;1.10;;
66559;SDS011;53413;49.878;8.142;2023-03-23T01:28:28;3.63;;;0.90;;
66559;SDS011;53413;49.878;8.142;2023-03-23T01:30:53;3.83;;;1.10;;
66559;SDS011;53413;49.878;8.142;2023-03-23T01:33:24;3.20;;;1.00;;
66559;SDS011;53413;49.878;8.142;2023-03-23T01:35:50;2.77;;;0.97;;
66559;SDS011;53413;49.878;8.142;2023-03-23T01:38:15;3.13;;;1.10;;
66559;SDS011;53413;49.878;8.142;2023-03-23T01:40:41;3.17;;;1.00;;
66559;SDS011;53413;49.878;8.142;2023-03-23T01:43:11;3.40;;;1.13;;
66559;SDS011;53413;49.878;8.142;2023-03-23T01:45:38;3.42;;;1.10;;
66559;SDS011;53413;49.878;8.142;2023-03-23T01:51:01;3.30;;;1.10;;
66559;SDS011;53413;49.878;8.142;2023-03-23T01:53:37;2.95;;;1.08;;
66559;SDS011;53413;49.878;8.142;2023-03-23T01:56:06;3.88;;;1.00;;
66559;SDS011;53413;49.878;8.142;2023-03-23T01:58:33;3.38;;;1.20;;
66559;SDS011;53413;49.878;8.142;2023-03-23T02:01:03;3.77;;;1.10;;
66559;SDS011;53413;49.878;8.142;2023-03-23T02:03:32;3.20;;;1.05;;
66559;SDS011;53413;49.878;8.142;2023-03-23T02:06:01;3.67;;;0.93;;
66559;SDS011;53413;49.878;8.142;2023-03-23T02:08:27;2.80;;;1.00;;
66559;SDS011;53413;49.878;8.142;2023-03-23T02:10:54;3.17;;;1.20;;
66559;SDS011;53413;49.878;8.142;2023-03-23T02:13:19;3.17;;;1.10;;
66559;SDS011;53413;49.878;8.142;2023-03-23T02:18:20;3.17;;;1.00;;
66559;SDS011;53413;49.878;8.142;2023-03-23T02:29:48;3.67;;;1.13;;
66559;SDS011;53413;49.878;8.142;2023-03-23T02:35:39;3.55;;;1.20;;
66559;SDS011;53413;49.878;8.142;2023-03-23T02:38:13;4.95;;;1.10;;
66559;SDS011;53413;49.878;8.142;2023-03-23T02:40:49;4.70;;;1.25;;
66559;SDS011;53413;49.878;8.142;2023-03-23T02:43:19;3.60;;;1.15;;
66559;SDS011;53413;49.878;8.142;2023-03-23T02:45:47;3.53;;;1.20;;
66559;SDS011;53413;49.878;8.142;2023-03-23T02:48:15;4.07;;;1.23;;
66559;SDS011;53413;49.878;8.142;2023-03-23T02:50:45;3.92;;;1.27;;
66559;SDS011;53413;49.878;8.142;2023-03-23T02:53:16;3.65;;;1.25;;
66559;SDS011;53413;49.878;8.142;2023-03-23T02:55:45;3.80;;;1.30;;
66559;SDS011;53413;49.878;8.142;2023-03-23T02:58:13;3.00;;;1.10;;
66559;SDS011;53413;49.878;8.142;2023-03-23T03:00:39;3.33;;;1.20;;
66559;SDS011;53413;49.878;8.142;2023-03-23T03:03:06;4.50;;;1.25;;
66559;SDS011;53413;49.878;8.142;2023-03-23T03:08:57;3.25;;;1.10;;
66559;SDS011;53413;49.878;8.142;2023-03-23T03:11:28;3.43;;;1.20;;
66559;SDS011;53413;49.878;8.142;2023-03-23T03:14:00;3.55;;;1.33;;
66559;SDS011;53413;49.878;8.142;2023-03-23T03:22:22;3.70;;;1.30;;
66559;SDS011;53413;49.878;8.142;2023-03-23T03:24:53;3.73;;;1.20;;
66559;SDS011;53413;49.878;8.142;2023-03-23T03:27:21;3.72;;;1.25;;
66559;SDS011;53413;49.878;8.142;2023-03-23T03:29:49;4.78;;;1.35;;
66559;SDS011;53413;49.878;8.142;2023-03-23T03:32:20;3.55;;;1.27;;
66559;SDS011;53413;49.878;8.142;2023-03-23T03:34:49;4.10;;;1.30;;
66559;SDS011;53413;49.878;8.142;2023-03-23T03:37:15;3.80;;;1.20;;
66559;SDS011;53413;49.878;8.142;2023-03-23T03:39:41;4.15;;;1.20;;
66559;SDS011;53413;49.878;8.142;2023-03-23T03:42:06;3.80;;;1.30;;
66559;SDS011;53413;49.878;8.142;2023-03-23T03:44:32;3.95;;;1.40;;
66559;SDS011;53413;49.878;8.142;2023-03-23T03:46:58;3.00;;;1.17;;
66559;SDS011;53413;49.878;8.142;2023-03-23T03:49:24;4.03;;;1.38;;
66559;SDS011;53413;49.878;8.142;2023-03-23T03:51:50;3.70;;;1.33;;
66559;SDS011;53413;49.878;8.142;2023-03-23T03:54:16;3.60;;;1.30;;
66559;SDS011;53413;49.878;8.142;2023-03-23T03:56:41;3.83;;;1.43;;
66559;SDS011;53413;49.878;8.142;2023-03-23T03:59:07;3.70;;;1.33;;
66559;SDS011;53413;49.878;8.142;2023-03-23T04:01:34;3.30;;;1.30;;
66559;SDS011;53413;49.878;8.142;2023-03-23T04:04:02;3.55;;;1.40;;
66559;SDS011;53413;49.878;8.142;2023-03-23T04:06:27;4.05;;;1.42;;
66559;SDS011;53413;49.878;8.142;2023-03-23T04:08:55;4.18;;;1.40;;
66559;SDS011;53413;49.878;8.142;2023-03-23T04:11:21;4.30;;;1.43;;
66559;SDS011;53413;49.878;8.142;2023-03-23T04:13:47;3.55;;;1.40;;
66559;SDS011;53413;49.878;8.142;2023-03-23T04:16:12;4.80;;;1.47;;
66559;SDS011;53413;49.878;8.142;2023-03-23T04:18:37;4.07;;;1.40;;
66559;SDS011;53413;49.878;8.142;2023-03-23T04:21:03;5.43;;;1.33;;
66559;SDS011;53413;49.878;8.142;2023-03-23T04:23:32;3.92;;;1.40;;
66559;SDS011;53413;49.878;8.142;2023-03-23T04:25:58;3.30;;;1.33;;
66559;SDS011;53413;49.878;8.142;2023-03-23T04:28:25;3.83;;;1.30;;
66559;SDS011;53413;49.878;8.142;2023-03-23T04:30:51;3.50;;;1.50;;
66559;SDS011;53413;49.878;8.142;2023-03-23T04:33:21;4.53;;;1.47;;
66559;SDS011;53413;49.878;8.142;2023-03-23T04:35:50;4.28;;;1.40;;
66559;SDS011;53413;49.878;8.142;2023-03-23T04:38:17;3.78;;;1.60;;
66559;SDS011;53413;49.878;8.142;2023-03-23T04:40:45;4.18;;;1.50;;
66559;SDS011;53413;49.878;8.142;2023-03-23T04:43:11;3.65;;;1.40;;
66559;SDS011;53413;49.878;8.142;2023-03-23T04:45:37;3.40;;;1.43;;
66559;SDS011;53413;49.878;8.142;2023-03-23T04:48:06;4.75;;;1.40;;
66559;SDS011;53413;49.878;8.142;2023-03-23T04:50:33;4.10;;;1.50;;
66559;SDS011;53413;49.878;8.142;2023-03-23T04:53:00;5.18;;;1.60;;
66559;SDS011;53413;49.878;8.142;2023-03-23T04:55:33;4.33;;;1.40;;
66559;SDS011;53413;49.878;8.142;2023-03-23T04:58:04;5.22;;;1.60;;
66559;SDS011;53413;49.878;8.142;2023-03-23T05:00:30;4.10;;;1.70;;
66559;SDS011;53413;49.878;8.142;2023-03-23T05:02:57;4.45;;;1.60;;
66559;SDS011;53413;49.878;8.142;2023-03-23T05:05:24;4.53;;;1.60;;
66559;SDS011;53413;49.878;8.142;2023-03-23T05:07:50;4.17;;;1.67;;
66559;SDS011;53413;49.878;8.142;2023-03-23T05:10:16;4.00;;;1.63;;
66559;SDS011;53413;49.878;8.142;2023-03-23T05:12:42;3.65;;;1.52;;
66559;SDS011;53413;49.878;8.142;2023-03-23T05:15:09;4.32;;;1.50;;
66559;SDS011;53413;49.878;8.142;2023-03-23T05:17:36;5.15;;;1.70;;
66559;SDS011;53413;49.878;8.142;2023-03-23T05:20:02;3.60;;;1.50;;
66559;SDS011;53413;49.878;8.142;2023-03-23T05:22:32;4.85;;;1.60;;
66559;SDS011;53413;49.878;8.142;2023-03-23T05:25:00;4.97;;;1.83;;
66559;SDS011;53413;49.878;8.142;2023-03-23T05:27:29;5.05;;;1.67;;
66559;SDS011;53413;49.878;8.142;2023-03-23T05:29:58;3.97;;;1.60;;
66559;SDS011;53413;49.878;8.142;2023-03-23T05:32:25;5.03;;;1.73;;
66559;SDS011;53413;49.878;8.142;2023-03-23T05:34:57;3.85;;;1.60;;
66559;SDS011;53413;49.878;8.142;2023-03-23T05:37:24;4.47;;;1.67;;
66559;SDS011;53413;49.878;8.142;2023-03-23T05:39:51;3.80;;;1.60;;
66559;SDS011;53413;49.878;8.142;2023-03-23T05:42:18;5.63;;;1.70;;
66559;SDS011;53413;49.878;8.142;2023-03-23T05:44:47;4.32;;;1.60;;
66559;SDS011;53413;49.878;8.142;2023-03-23T05:47:14;4.07;;;1.60;;
66559;SDS011;53413;49.878;8.142;2023-03-23T05:49:40;4.40;;;1.80;;
66559;SDS011;53413;49.878;8.142;2023-03-23T05:52:05;4.72;;;1.67;;
66559;SDS011;53413;49.878;8.142;2023-03-23T05:54:30;4.20;;;1.60;;
66559;SDS011;53413;49.878;8.142;2023-03-23T05:56:56;5.30;;;1.70;;
66559;SDS011;53413;49.878;8.142;2023-03-23T05:59:21;5.10;;;1.70;;
66559;SDS011;53413;49.878;8.142;2023-03-23T06:01:47;4.22;;;1.90;;
66559;SDS011;53413;49.878;8.142;2023-03-23T06:04:12;5.90;;;1.75;;
66559;SDS011;53413;49.878;8.142;2023-03-23T06:06:38;4.90;;;1.70;;
66559;SDS011;53413;49.878;8.142;2023-03-23T06:09:06;5.22;;;1.83;;
66559;SDS011;53413;49.878;8.142;2023-03-23T06:11:32;4.32;;;1.60;;
66559;SDS011;53413;49.878;8.142;2023-03-23T06:13:57;4.53;;;1.63;;
66559;SDS011;53413;49.878;8.142;2023-03-23T06:16:22;4.50;;;1.70;;
66559;SDS011;53413;49.878;8.142;2023-03-23T06:18:48;5.73;;;1.50;;
66559;SDS011;53413;49.878;8.142;2023-03-23T06:21:14;4.10;;;1.65;;
66559;SDS011;53413;49.878;8.142;2023-03-23T06:23:40;4.45;;;1.63;;
66559;SDS011;53413;49.878;8.142;2023-03-23T06:26:06;5.27;;;1.83;;
66559;SDS011;53413;49.878;8.142;2023-03-23T06:28:33;4.47;;;1.90;;
66559;SDS011;53413;49.878;8.142;2023-03-23T06:30:59;4.15;;;1.70;;
66559;SDS011;53413;49.878;8.142;2023-03-23T06:33:26;4.15;;;1.52;;
66559;SDS011;53413;49.878;8.142;2023-03-23T06:35:51;4.97;;;1.80;;
66559;SDS011;53413;49.878;8.142;2023-03-23T06:38:17;5.27;;;1.80;;
66559;SDS011;53413;49.878;8.142;2023-03-23T06:40:43;4.45;;;1.70;;
66559;SDS011;53413;49.878;8.142;2023-03-23T06:43:11;4.20;;;1.73;;
66559;SDS011;53413;49.878;8.142;2023-03-23T06:45:37;4.40;;;1.60;;
66559;SDS011;53413;49.878;8.142;2023-03-23T06:48:03;4.73;;;1.80;;
66559;SDS011;53413;49.878;8.142;2023-03-23T06:50:28;4.10;;;1.70;;
66559;SDS011;53413;49.878;8.142;2023-03-23T06:52:54;3.77;;;1.60;;
66559;SDS011;53413;49.878;8.142;2023-03-23T06:55:19;4.77;;;1.70;;
66559;SDS011;53413;49.878;8.142;2023-03-23T06:57:44;6.37;;;1.87;;
66559;SDS011;53413;49.878;8.142;2023-03-23T07:00:10;4.97;;;1.80;;
66559;SDS011;53413;49.878;8.142;2023-03-23T07:02:41;4.60;;;1.70;;
66559;SDS011;53413;49.878;8.142;2023-03-23T07:05:08;6.00;;;1.87;;
66559;SDS011;53413;49.878;8.142;2023-03-23T07:07:34;5.47;;;1.80;;
66559;SDS011;53413;49.878;8.142;2023-03-23T07:10:00;6.00;;;1.90;;
66559;SDS011;53413;49.878;8.142;2023-03-23T07:12:27;7.20;;;1.90;;
66559;SDS011;53413;49.878;8.142;2023-03-23T07:14:53;4.38;;;1.77;;
66559;SDS011;53413;49.878;8.142;2023-03-23T07:17:19;5.37;;;1.80;;
66559;SDS011;53413;49.878;8.142;2023-03-23T07:19:45;4.22;;;1.60;;
66559;SDS011;53413;49.878;8.142;2023-03-23T07:22:11;5.23;;;1.60;;
66559;SDS011;53413;49.878;8.142;2023-03-23T07:24:36;4.90;;;1.80;;
66559;SDS011;53413;49.878;8.142;2023-03-23T07:27:01;5.10;;;1.88;;
66559;SDS011;53413;49.878;8.142;2023-03-23T07:29:27;4.13;;;1.70;;
66559;SDS011;53413;49.878;8.142;2023-03-23T07:31:53;5.57;;;1.60;;
66559;SDS011;53413;49.878;8.142;2023-03-23T07:34:19;5.37;;;1.80;;
66559;SDS011;53413;49.878;8.142;2023-03-23T07:36:45;4.88;;;1.60;;
66559;SDS011;53413;49.878;8.142;2023-03-23T07:39:11;5.35;;;1.70;;
66559;SDS011;53413;49.878;8.142;2023-03-23T07:41:37;5.20;;;1.93;;
66559;SDS011;53413;49.878;8.142;2023-03-23T07:44:03;4.38;;;1.70;;
66559;SDS011;53413;49.878;8.142;2023-03-23T07:46:29;5.97;;;1.80;;
66559;SDS011;53413;49.878;8.142;2023-03-23T07:48:55;4.90;;;1.70;;
66559;SDS011;53413;49.878;8.142;2023-03-23T07:51:21;4.53;;;1.60;;
66559;SDS011;53413;49.878;8.142;2023-03-23T07:53:47;4.53;;;1.75;;
66559;SDS011;53413;49.878;8.142;2023-03-23T07:56:13;4.50;;;1.70;;
66559;SDS011;53413;49.878;8.142;2023-03-23T07:58:44;4.30;;;1.80;;
66559;SDS011;53413;49.878;8.142;2023-03-23T08:01:11;4.22;;;1.70;;
66559;SDS011;53413;49.878;8.142;2023-03-23T08:03:37;3.90;;;1.90;;
66559;SDS011;53413;49.878;8.142;2023-03-23T08:06:03;4.03;;;1.80;;
66559;SDS011;53413;49.878;8.142;2023-03-23T08:08:29;3.95;;;1.80;;
66559;SDS011;53413;49.878;8.142;2023-03-23T08:10:55;4.63;;;1.80;;
66559;SDS011;53413;49.878;8.142;2023-03-23T08:13:20;4.97;;;2.00;;
66559;SDS011;53413;49.878;8.142;2023-03-23T08:15:46;4.50;;;1.90;;
66559;SDS011;53413;49.878;8.142;2023-03-23T08:18:11;4.07;;;1.70;;
66559;SDS011;53413;49.878;8.142;2023-03-23T08:20:37;4.23;;;1.90;;
66559;SDS011;53413;49.878;8.142;2023-03-23T08:23:03;4.32;;;1.77;;
66559;SDS011;53413;49.878;8.142;2023-03-23T08:25:29;5.30;;;1.57;;
66559;SDS011;53413;49.878;8.142;2023-03-23T08:27:58;5.05;;;1.92;;
66559;SDS011;53413;49.878;8.142;2023-03-23T08:30:26;4.47;;;1.90;;
66559;SDS011;53413;49.878;8.142;2023-03-23T08:32:54;4.25;;;1.92;;
66559;SDS011;53413;49.878;8.142;2023-03-23T08:35:21;4.37;;;1.73;;
66559;SDS011;53413;49.878;8.142;2023-03-23T08:37:47;4.40;;;1.75;;
66559;SDS011;53413;49.878;8.142;2023-03-23T08:40:17;4.85;;;1.88;;
66559;SDS011;53413;49.878;8.142;2023-03-23T08:42:44;4.10;;;1.90;;
66559;SDS011;53413;49.878;8.142;2023-03-23T08:45:11;8.15;;;2.03;;
66559;SDS011;53413;49.878;8.142;2023-03-23T08:47:40;4.87;;;1.80;;
66559;SDS011;53413;49.878;8.142;2023-03-23T08:50:06;4.63;;;1.88;;
66559;SDS011;53413;49.878;8.142;2023-03-23T08:52:36;4.25;;;1.80;;
66559;SDS011;53413;49.878;8.142;2023-03-23T08:55:02;3.95;;;1.80;;
66559;SDS011;53413;49.878;8.142;2023-03-23T08:57:28;3.73;;;1.60;;
66559;SDS011;53413;49.878;8.142;2023-03-23T08:59:54;4.53;;;1.50;;
66559;SDS011;53413;49.878;8.142;2023-03-23T09:02:22;4.13;;;1.60;;
66559;SDS011;53413;49.878;8.142;2023-03-23T09:04:48;4.25;;;1.67;;
66559;SDS011;53413;49.878;8.142;2023-03-23T09:07:14;3.60;;;1.63;;
66559;SDS011;53413;49.878;8.142;2023-03-23T09:09:39;4.37;;;1.37;;
66559;SDS011;53413;49.878;8.142;2023-03-23T09:12:06;3.67;;;1.52;;
66559;SDS011;53413;49.878;8.142;2023-03-23T09:14:33;3.63;;;1.70;;
66559;SDS011;53413;49.878;8.142;2023-03-23T09:16:59;3.83;;;1.70;;
66559;SDS011;53413;49.878;8.142;2023-03-23T09:19:24;3.80;;;1.40;;
66559;SDS011;53413;49.878;8.142;2023-03-23T09:21:49;4.30;;;1.40;;
66559;SDS011;53413;49.878;8.142;2023-03-23T09:24:15;4.70;;;1.60;;
66559;SDS011;53413;49.878;8.142;2023-03-23T09:26:40;3.60;;;1.40;;
66559;SDS011;53413;49.878;8.142;2023-03-23T09:29:06;3.70;;;1.57;;
66559;SDS011;53413;49.878;8.142;2023-03-23T09:31:31;3.50;;;1.35;;
66559;SDS011;53413;49.878;8.142;2023-03-23T09:33:57;3.33;;;1.50;;
66559;SDS011;53413;49.878;8.142;2023-03-23T09:36:24;3.80;;;1.65;;
66559;SDS011;53413;49.878;8.142;2023-03-23T09:38:51;4.10;;;1.40;;
66559;SDS011;53413;49.878;8.142;2023-03-23T09:47:00;3.63;;;1.38;;
66559;SDS011;53413;49.878;8.142;2023-03-23T09:49:48;4.45;;;1.77;;
66559;SDS011;53413;49.878;8.142;2023-03-23T09:52:18;3.77;;;1.67;;
66559;SDS011;53413;49.878;8.142;2023-03-23T09:54:49;3.75;;;1.33;;
66559;SDS011;53413;49.878;8.142;2023-03-23T10:02:39;3.83;;;1.60;;
66559;SDS011;53413;49.878;8.142;2023-03-23T10:05:29;4.07;;;1.53;;
66559;SDS011;53413;49.878;8.142;2023-03-23T10:07:54;3.38;;;1.50;;
66559;SDS011;53413;49.878;8.142;2023-03-23T10:10:20;3.60;;;1.50;;
66559;SDS011;53413;49.878;8.142;2023-03-23T10:12:54;4.47;;;1.50;;
66559;SDS011;53413;49.878;8.142;2023-03-23T10:15:25;4.50;;;1.30;;
66559;SDS011;53413;49.878;8.142;2023-03-23T10:18:15;3.63;;;1.25;;
66559;SDS011;53413;49.878;8.142;2023-03-23T10:20:46;3.83;;;1.10;;
66559;SDS011;53413;49.878;8.142;2023-03-23T10:26:02;3.80;;;1.00;;
66559;SDS011;53413;49.878;8.142;2023-03-23T10:28:48;2.95;;;1.10;;
66559;SDS011;53413;49.878;8.142;2023-03-23T10:31:24;4.20;;;1.40;;
66559;SDS011;53413;49.878;8.142;2023-03-23T10:33:55;3.47;;;1.10;;
66559;SDS011;53413;49.878;8.142;2023-03-23T10:36:30;3.90;;;1.20;;
66559;SDS011;53413;49.878;8.142;2023-03-23T10:39:02;3.70;;;1.00;;
66559;SDS011;53413;49.878;8.142;2023-03-23T10:41:36;3.00;;;1.10;;
66559;SDS011;53413;49.878;8.142;2023-03-23T10:44:07;3.03;;;1.10;;
66559;SDS011;53413;49.878;8.142;2023-03-23T10:46:46;4.35;;;1.08;;
66559;SDS011;53413;49.878;8.142;2023-03-23T10:49:14;3.00;;;1.17;;
66559;SDS011;53413;49.878;8.142;2023-03-23T10:51:44;4.17;;;1.10;;
66559;SDS011;53413;49.878;8.142;2023-03-23T10:54:25;3.38;;;1.15;;
66559;SDS011;53413;49.878;8.142;2023-03-23T10:56:58;3.88;;;1.20;;
66559;SDS011;53413;49.878;8.142;2023-03-23T10:59:27;5.10;;;1.10;;
66559;SDS011;53413;49.878;8.142;2023-03-23T11:01:58;2.85;;;1.10;;
66559;SDS011;53413;49.878;8.142;2023-03-23T11:04:28;3.00;;;1.08;;
66559;SDS011;53413;49.878;8.142;2023-03-23T11:06:58;2.78;;;1.00;;
66559;SDS011;53413;49.878;8.142;2023-03-23T11:09:37;3.20;;;1.00;;
66559;SDS011;53413;49.878;8.142;2023-03-23T11:12:04;2.63;;;0.90;;
66559;SDS011;53413;49.878;8.142;2023-03-23T11:14:41;3.03;;;0.98;;
66559;SDS011;53413;49.878;8.142;2023-03-23T11:20:11;3.00;;;1.10;;
66559;SDS011;53413;49.878;8.142;2023-03-23T11:22:37;3.10;;;1.00;;
66559;SDS011;53413;49.878;8.142;2023-03-23T11:25:04;3.00;;;1.20;;
66559;SDS011;53413;49.878;8.142;2023-03-23T11:27:30;3.07;;;1.30;;
66559;SDS011;53413;49.878;8.142;2023-03-23T11:30:18;4.38;;;1.50;;
66559;SDS011;53413;49.878;8.142;2023-03-23T11:32:45;3.28;;;1.45;;
66559;SDS011;53413;49.878;8.142;2023-03-23T11:35:15;4.15;;;1.40;;
66559;SDS011;53413;49.878;8.142;2023-03-23T11:40:22;3.40;;;1.50;;
66559;SDS011;53413;49.878;8.142;2023-03-23T11:43:11;3.33;;;1.33;;
66559;SDS011;53413;49.878;8.142;2023-03-23T11:50:59;4.00;;;1.60;;
66559;SDS011;53413;49.878;8.142;2023-03-23T11:53:35;3.93;;;1.30;;
66559;SDS011;53413;49.878;8.142;2023-03-23T11:56:11;3.58;;;1.42;;
66559;SDS011;53413;49.878;8.142;2023-03-23T11:58:38;3.30;;;1.50;;
66559;SDS011;53413;49.878;8.142;2023-03-23T12:01:05;3.20;;;1.27;;
66559;SDS011;53413;49.878;8.142;2023-03-23T12:06:11;3.60;;;1.00;;
66559;SDS011;53413;49.878;8.142;2023-03-23T12:17:27;3.05;;;1.10;;
66559;SDS011;53413;49.878;8.142;2023-03-23T12:28:26;3.53;;;1.30;;
66559;SDS011;53413;49.878;8.142;2023-03-23T12:31:18;3.08;;;1.30;;
66559;SDS011;53413;49.878;8.142;2023-03-23T12:44:46;4.45;;;1.40;;
66559;SDS011;53413;49.878;8.142;2023-03-23T12:50:10;4.72;;;1.52;;
66559;SDS011;53413;49.878;8.142;2023-03-23T12:55:42;3.92;;;1.20;;
66559;SDS011;53413;49.878;8.142;2023-03-23T12:58:26;3.45;;;1.20;;
66559;SDS011;53413;49.878;8.142;2023-03-23T13:01:15;3.22;;;1.20;;
66559;SDS011;53413;49.878;8.142;2023-03-23T13:03:53;3.10;;;1.30;;
66559;SDS011;53413;49.878;8.142;2023-03-23T13:06:25;3.13;;;1.42;;
66559;SDS011;53413;49.878;8.142;2023-03-23T13:11:48;3.40;;;1.40;;
66559;SDS011;53413;49.878;8.142;2023-03-23T13:24:52;3.13;;;1.40;;
66559;SDS011;53413;49.878;8.142;2023-03-23T13:27:26;4.00;;;1.20;;
66559;SDS011;53413;49.878;8.142;2023-03-23T13:29:54;3.40;;;1.20;;
66559;SDS011;53413;49.878;8.142;2023-03-23T13:32:32;4.68;;;1.40;;
66559;SDS011;53413;49.878;8.142;2023-03-23T13:35:02;3.27;;;1.10;;
66559;SDS011;53413;49.878;8.142;2023-03-23T13:37:31;3.08;;;1.10;;
66559;SDS011;53413;49.878;8.142;2023-03-23T13:40:11;3.80;;;1.40;;
66559;SDS011;53413;49.878;8.142;2023-03-23T13:42:53;3.53;;;1.25;;
66559;SDS011;53413;49.878;8.142;2023-03-23T13:48:28;3.97;;;1.10;;
66559;SDS011;53413;49.878;8.142;2023-03-23T13:54:04;4.10;;;1.05;;
66559;SDS011;53413;49.878;8.142;2023-03-23T13:56:15;3.72;;;1.38;;
66559;SDS011;53413;49.878;8.142;2023-03-23T13:59:05;3.30;;;1.60;;
66559;SDS011;53413;49.878;8.142;2023-03-23T14:01:54;3.20;;;1.10;;
66559;SDS011;53413;49.878;8.142;2023-03-23T14:04:21;4.10;;;1.20;;
66559;SDS011;53413;49.878;8.142;2023-03-23T14:06:49;3.42;;;1.00;;
66559;SDS011;53413;49.878;8.142;2023-03-23T14:09:16;4.05;;;1.05;;
66559;SDS011;53413;49.878;8.142;2023-03-23T14:11:56;3.75;;;1.13;;
66559;SDS011;53413;49.878;8.142;2023-03-23T14:14:42;3.70;;;1.10;;
66559;SDS011;53413;49.878;8.142;2023-03-23T14:19:53;3.13;;;0.93;;
66559;SDS011;53413;49.878;8.142;2023-03-23T14:22:24;3.30;;;1.00;;
66559;SDS011;53413;49.878;8.142;2023-03-23T14:24:53;2.75;;;0.98;;
66559;SDS011;53413;49.878;8.142;2023-03-23T14:27:26;4.37;;;1.10;;
66559;SDS011;53413;49.878;8.142;2023-03-23T14:29:58;3.47;;;0.95;;
66559;SDS011;53413;49.878;8.142;2023-03-23T14:32:25;3.35;;;1.02;;
66559;SDS011;53413;49.878;8.142;2023-03-23T14:34:53;3.00;;;0.93;;
66559;SDS011;53413;49.878;8.142;2023-03-23T14:37:20;3.80;;;0.90;;
66559;SDS011;53413;49.878;8.142;2023-03-23T14:39:47;3.33;;;1.00;;
66559;SDS011;53413;49.878;8.142;2023-03-23T14:42:16;3.38;;;0.90;;
66559;SDS011;53413;49.878;8.142;2023-03-23T14:44:45;2.97;;;1.00;;
66559;SDS011;53413;49.878;8.142;2023-03-23T14:47:18;3.15;;;1.00;;
66559;SDS011;53413;49.878;8.142;2023-03-23T14:49:56;2.90;;;0.90;;
66559;SDS011;53413;49.878;8.142;2023-03-23T14:52:23;4.17;;;0.80;;
66559;SDS011;53413;49.878;8.142;2023-03-23T14:54:51;2.90;;;0.90;;
66559;SDS011;53413;49.878;8.142;2023-03-23T14:57:18;2.80;;;0.85;;
66559;SDS011;53413;49.878;8.142;2023-03-23T14:59:51;3.20;;;1.00;;
66559;SDS011;53413;49.878;8.142;2023-03-23T15:02:18;3.95;;;0.80;;
66559;SDS011;53413;49.878;8.142;2023-03-23T15:04:49;3.78;;;0.90;;
66559;SDS011;53413;49.878;8.142;2023-03-23T15:07:19;3.03;;;0.80;;
66559;SDS011;53413;49.878;8.142;2023-03-23T15:09:45;4.10;;;0.90;;
66559;SDS011;53413;49.878;8.142;2023-03-23T15:12:19;3.03;;;1.00;;
66559;SDS011;53413;49.878;8.142;2023-03-23T15:14:49;4.25;;;1.00;;
66559;SDS011;53413;49.878;8.142;2023-03-23T15:17:26;2.85;;;1.00;;
66559;SDS011;53413;49.878;8.142;2023-03-23T15:19:54;2.53;;;0.80;;
66559;SDS011;53413;49.878;8.142;2023-03-23T15:24:51;3.45;;;1.00;;
66559;SDS011;53413;49.878;8.142;2023-03-23T15:27:27;2.95;;;0.90;;
66559;SDS011;53413;49.878;8.142;2023-03-23T15:29:58;3.30;;;0.90;;
66559;SDS011;53413;49.878;8.142;2023-03-23T15:32:37;3.00;;;1.08;;
66559;SDS011;53413;49.878;8.142;2023-03-23T15:35:10;3.90;;;1.20;;
66559;SDS011;53413;49.878;8.142;2023-03-23T15:37:42;3.60;;;1.40;;
66559;SDS011;53413;49.878;8.142;2023-03-23T15:40:19;3.85;;;1.40;;
66559;SDS011;53413;49.878;8.142;2023-03-23T15:42:48;3.95;;;1.60;;
66559;SDS011;53413;49.878;8.142;2023-03-23T15:45:27;4.20;;;1.58;;
66559;SDS011;53413;49.878;8.142;2023-03-23T15:47:52;4.17;;;1.70;;
66559;SDS011;53413;49.878;8.142;2023-03-23T15:50:19;3.78;;;1.80;;
66559;SDS011;53413;49.878;8.142;2023-03-23T15:52:58;3.63;;;1.80;;
66559;SDS011;53413;49.878;8.142;2023-03-23T15:57:52;4.80;;;2.03;;
66559;SDS011;53413;49.878;8.142;2023-03-23T16:00:19;5.18;;;2.55;;
66559;SDS011;53413;49.878;8.142;2023-03-23T16:02:46;5.03;;;1.83;;
66559;SDS011;53413;49.878;8.142;2023-03-23T16:05:14;4.68;;;2.15;;
66559;SDS011;53413;49.878;8.142;2023-03-23T16:07:39;3.97;;;1.83;;
66559;SDS011;53413;49.878;8.142;2023-03-23T16:10:05;4.68;;;2.47;;
66559;SDS011;53413;49.878;8.142;2023-03-23T16:12:34;5.20;;;2.10;;
66559;SDS011;53413;49.878;8.142;2023-03-23T16:15:00;4.20;;;1.90;;
66559;SDS011;53413;49.878;8.142;2023-03-23T16:17:26;4.23;;;2.23;;
66559;SDS011;53413;49.878;8.142;2023-03-23T16:19:51;4.53;;;2.03;;
66559;SDS011;53413;49.878;8.142;2023-03-23T16:22:16;4.17;;;2.00;;
66559;SDS011;53413;49.878;8.142;2023-03-23T16:24:42;4.57;;;1.80;;
66559;SDS011;53413;49.878;8.142;2023-03-23T16:27:10;5.20;;;2.10;;
66559;SDS011;53413;49.878;8.142;2023-03-23T16:29:36;4.65;;;1.85;;
66559;SDS011;53413;49.878;8.142;2023-03-23T16:32:01;5.13;;;2.30;;
66559;SDS011;53413;49.878;8.142;2023-03-23T16:34:26;4.53;;;2.20;;
66559;SDS011;53413;49.878;8.142;2023-03-23T16:36:53;5.13;;;2.70;;
66559;SDS011;53413;49.878;8.142;2023-03-23T16:39:20;4.85;;;3.35;;
66559;SDS011;53413;49.878;8.142;2023-03-23T16:41:45;4.03;;;2.10;;
66559;SDS011;53413;49.878;8.142;2023-03-23T16:44:10;4.27;;;1.90;;
66559;SDS011;53413;49.878;8.142;2023-03-23T16:46:36;4.65;;;2.20;;
66559;SDS011;53413;49.878;8.142;2023-03-23T16:49:01;5.50;;;2.67;;
66559;SDS011;53413;49.878;8.142;2023-03-23T16:51:27;5.47;;;1.90;;
66559;SDS011;53413;49.878;8.142;2023-03-23T16:53:52;5.10;;;1.70;;